Time;durP1;ratioP1;P1;durP2;ratioP2;P2;SDS_P1;SDS_P2;PMS_P1;PMS_P2;Temp;Humidity;BMP_temperature;BMP_pressure;BME280_temperature;BME280_humidity;BME280_pressure;Samples;Min_cycle;Max_cycle;Signal;HPM_P1;HPM_P2
2021/06/03 00:00:59;;;;;;;;;;;;;;;21.91;47.70;101792.56;2095988;28;4053;-74
2021/06/03 00:02:00;;;;;;;;;;;;;;;21.92;47.71;101802.81;2097736;28;4011;-74
2021/06/03 00:03:02;;;;;;;;;;;;;;;21.91;47.76;101793.41;2097157;28;4084;-74
2021/06/03 00:04:03;;;;;;;;;;;;;;;21.91;47.78;101796.25;2097155;28;3977;-75
2021/06/03 00:05:05;;;;;;;;;;;;;;;21.92;47.81;101800.78;2097044;28;4037;-73
2021/06/03 00:06:06;;;;;;;;;;;;;;;21.93;47.81;101790.22;2097747;28;4924;-74
2021/06/03 00:07:07;;;;;;;;;;;;;;;21.92;47.73;101794.25;2095786;28;5060;-74
2021/06/03 00:08:09;;;;;;;;;;;;;;;21.93;47.90;101796.75;2098407;28;4106;-74
2021/06/03 00:09:10;;;;;;;;;;;;;;;21.93;47.86;101793.91;2097399;28;3849;-73
2021/06/03 00:10:11;;;;;;;;;;;;;;;21.94;47.89;101789.88;2097927;28;4363;-73
2021/06/03 00:11:12;;;;;;;;;;;;;;;21.95;47.97;101788.72;2095974;28;3992;-73
2021/06/03 00:12:14;;;;;;;;;;;;;;;21.95;48.10;101785.88;2096695;28;4181;-73
2021/06/03 00:13:15;;;;;;;;;;;;;;;21.96;48.04;101790.38;2098459;28;3987;-72
2021/06/03 00:14:16;;;;;;;;;;;;;;;21.96;48.04;101790.38;2098253;28;4026;-73
2021/06/03 00:15:17;;;;;;;;;;;;;;;21.97;48.11;101785.50;2098200;28;3864;-73
2021/06/03 00:16:18;;;;;;;;;;;;;;;21.96;48.15;101784.69;2097314;28;4005;-73
2021/06/03 00:17:20;;;;;;;;;;;;;;;21.97;48.12;101782.66;2096826;28;4023;-72
2021/06/03 00:18:21;;;;;;;;;;;;;;;21.97;47.93;101786.38;2098374;28;3998;-73
2021/06/03 00:19:22;;;;;;;;;;;;;;;21.98;48.07;101781.50;2098571;28;3998;-73
2021/06/03 00:20:24;;;;;;;;;;;;;;;21.99;48.07;101780.31;2098248;28;4068;-73
2021/06/03 00:21:25;;;;;;;;;;;;;;;21.99;48.25;101784.00;2097334;28;3999;-74
2021/06/03 00:22:26;;;;;;;;;;;;;;;21.99;48.21;101786.84;2098633;28;3992;-73
2021/06/03 00:23:27;;;;;;;;;;;;;;;21.99;48.14;101786.84;2097889;28;3889;-72
2021/06/03 00:24:29;;;;;;;;;;;;;;;22.00;48.25;101793.41;2097401;28;3819;-73
2021/06/03 00:25:30;;;;;;;;;;;;;;;22.01;48.11;101792.22;2096839;28;5407;-72
2021/06/03 00:26:31;;;;;;;;;;;;;;;22.01;48.09;101792.22;2097243;28;4001;-73
2021/06/03 00:27:32;;;;;;;;;;;;;;;22.01;48.16;101795.91;2097391;28;3991;-73
2021/06/03 00:28:33;;;;;;;;;;;;;;;22.02;48.26;101791.03;2097492;28;4000;-73
2021/06/03 00:29:35;;;;;;;;;;;;;;;22.02;48.29;101788.19;2097696;28;4121;-72
2021/06/03 00:30:36;;;;;;;;;;;;;;;22.03;48.34;101795.59;2098492;28;3818;-72
2021/06/03 00:31:37;;;;;;;;;;;;;;;22.02;48.24;101786.19;2097667;28;3846;-71
2021/06/03 00:32:39;;;;;;;;;;;;;;;22.04;48.27;101793.56;2096951;28;3790;-71
2021/06/03 00:33:40;;;;;;;;;;;;;;;22.02;48.44;101783.34;2098198;28;3855;-73
2021/06/03 00:34:41;;;;;;;;;;;;;;;22.04;48.33;101791.56;2097512;28;4002;-73
2021/06/03 00:35:43;;;;;;;;;;;;;;;22.05;48.44;101798.91;2098253;28;3981;-72
2021/06/03 00:36:44;;;;;;;;;;;;;;;22.05;48.41;101793.22;2097024;28;4022;-73
2021/06/03 00:37:45;;;;;;;;;;;;;;;22.06;48.52;101794.09;2095802;28;4412;-72
2021/06/03 00:38:46;;;;;;;;;;;;;;;22.05;48.60;101793.22;2097820;28;3880;-72
2021/06/03 00:39:47;;;;;;;;;;;;;;;22.05;48.56;101790.38;2098277;28;4031;-73
2021/06/03 00:40:49;;;;;;;;;;;;;;;22.07;48.49;101795.75;2097459;28;3959;-73
2021/06/03 00:41:50;;;;;;;;;;;;;;;22.07;48.45;101790.03;2097088;28;4017;-72
2021/06/03 00:42:51;;;;;;;;;;;;;;;22.06;48.47;101789.22;2097347;28;4013;-73
2021/06/03 00:43:52;;;;;;;;;;;;;;;22.07;48.71;101788.03;2096579;28;3997;-72
2021/06/03 00:44:53;;;;;;;;;;;;;;;22.07;48.67;101788.03;2096756;28;4040;-73
2021/06/03 00:45:55;;;;;;;;;;;;;;;22.07;48.76;101788.03;2096349;28;3846;-73
2021/06/03 00:46:56;;;;;;;;;;;;;;;22.08;48.68;101789.72;2098195;28;4153;-76
2021/06/03 00:47:58;;;;;;;;;;;;;;;22.08;48.66;101786.88;2096235;28;3871;-76
2021/06/03 00:48:59;;;;;;;;;;;;;;;22.09;48.64;101791.38;2098057;28;4056;-75
2021/06/03 00:50:00;;;;;;;;;;;;;;;22.09;48.69;101779.16;2096043;28;4021;-76
2021/06/03 00:51:01;;;;;;;;;;;;;;;22.09;48.80;101782.84;2096792;28;4068;-75
2021/06/03 00:52:03;;;;;;;;;;;;;;;22.09;48.74;101782.84;2097199;28;4012;-75
2021/06/03 00:53:04;;;;;;;;;;;;;;;22.09;48.70;101782.84;2098242;28;3967;-75
2021/06/03 00:54:05;;;;;;;;;;;;;;;22.09;48.78;101782.84;2097698;28;5138;-75
2021/06/03 00:55:06;;;;;;;;;;;;;;;22.10;48.70;101790.19;2095700;28;3841;-75
2021/06/03 00:56:07;;;;;;;;;;;;;;;22.09;48.73;101788.53;2096963;28;4109;-76
2021/06/03 00:57:08;;;;;;;;;;;;;;;22.10;48.88;101792.22;2096444;28;3868;-76
2021/06/03 00:58:10;;;;;;;;;;;;;;;22.10;48.73;101793.06;2096803;28;4115;-76
2021/06/03 00:59:11;;;;;;;;;;;;;;;22.10;48.79;101793.06;2097694;28;4123;-75
2021/06/03 01:00:12;;;;;;;;;;;;;;;22.11;48.65;101783.34;2097027;28;4097;-75
2021/06/03 01:01:13;;;;;;;;;;;;;;;22.11;48.95;101789.03;2096176;28;5097;-76
2021/06/03 01:02:14;;;;;;;;;;;;;;;22.11;48.71;101786.19;2098409;28;3898;-76
2021/06/03 01:03:16;;;;;;;;;;;;;;;22.12;48.80;101792.72;2096917;28;3932;-75
2021/06/03 01:04:20;;;;;;;;;;;;;;;22.13;48.76;101797.25;2095370;28;3842;-75
2021/06/03 01:05:21;;;;;;;;;;;;;;;22.13;48.82;101792.38;2095967;28;4864;-76
2021/06/03 01:06:23;;;;;;;;;;;;;;;22.13;49.01;101795.22;2098063;28;3999;-73
2021/06/03 01:07:24;;;;;;;;;;;;;;;22.13;48.92;101792.38;2097568;28;5287;-73
2021/06/03 01:08:25;;;;;;;;;;;;;;;22.13;49.02;101800.09;2096124;28;3873;-73
2021/06/03 01:09:28;;;;;;;;;;;;;;;22.13;48.71;101800.94;2097012;28;3938;-73
2021/06/03 01:10:29;;;;;;;;;;;;;;;22.14;49.13;101798.94;2096529;28;4004;-75
2021/06/03 01:11:30;;;;;;;;;;;;;;;22.14;48.94;101799.78;2098050;28;3996;-75
2021/06/03 01:12:31;;;;;;;;;;;;;;;22.14;49.15;101805.47;2094289;28;4119;-75
2021/06/03 01:13:33;;;;;;;;;;;;;;;22.15;49.02;101804.28;2086648;28;4086;-75
2021/06/03 01:14:34;;;;;;;;;;;;;;;22.15;49.20;101801.44;2087461;28;3997;-74
2021/06/03 01:15:35;;;;;;;;;;;;;;;22.16;49.16;101802.25;2096069;28;3853;-73
2021/06/03 01:16:36;;;;;;;;;;;;;;;22.16;49.14;101803.09;2095470;28;4088;-74
2021/06/03 01:17:38;;;;;;;;;;;;;;;22.15;49.24;101797.75;2095086;28;4015;-74
2021/06/03 01:18:40;;;;;;;;;;;;;;;22.17;49.35;101801.09;2096406;28;3994;-74
2021/06/03 01:19:41;;;;;;;;;;;;;;;22.17;49.23;101801.94;2097559;28;3989;-73
2021/06/03 01:20:42;;;;;;;;;;;;;;;22.17;49.21;101801.09;2097408;28;3920;-76
2021/06/03 01:21:43;;;;;;;;;;;;;;;22.17;49.22;101799.09;2097640;28;3955;-76
2021/06/03 01:22:44;;;;;;;;;;;;;;;22.17;49.35;101801.94;2096049;28;4020;-76
2021/06/03 01:23:46;;;;;;;;;;;;;;;22.18;49.30;101802.81;2097514;28;5101;-75
2021/06/03 01:24:47;;;;;;;;;;;;;;;22.17;49.20;101804.78;2088903;28;4025;-77
2021/06/03 01:25:48;;;;;;;;;;;;;;;22.17;49.23;101801.09;2087250;28;3904;-74
2021/06/03 01:26:49;;;;;;;;;;;;;;;22.18;49.38;101803.63;2086790;28;3850;-76
2021/06/03 01:27:50;;;;;;;;;;;;;;;22.18;49.41;101802.81;2084758;28;4018;-74
2021/06/03 01:28:52;;;;;;;;;;;;;;;22.19;49.29;101802.47;2085532;28;4072;-75
2021/06/03 01:29:53;;;;;;;;;;;;;;;22.19;49.32;101811.03;2085168;28;3873;-75
2021/06/03 01:30:55;;;;;;;;;;;;;;;22.19;49.47;101807.31;2086613;28;3917;-78
2021/06/03 01:31:56;;;;;;;;;;;;;;;22.18;49.29;101809.34;2085276;28;4027;-74
2021/06/03 01:32:57;;;;;;;;;;;;;;;22.19;49.33;101808.19;2087446;28;3952;-72
2021/06/03 01:33:59;;;;;;;;;;;;;;;22.20;49.47;101811.88;2088491;28;3864;-73
2021/06/03 01:35:00;;;;;;;;;;;;;;;22.19;49.30;101808.19;2088439;28;4130;-73
2021/06/03 01:36:01;;;;;;;;;;;;;;;22.20;49.30;101807.00;2089914;28;4074;-73
2021/06/03 01:37:02;;;;;;;;;;;;;;;22.21;49.41;101807.81;2088286;28;4013;-72
2021/06/03 01:38:04;;;;;;;;;;;;;;;22.20;49.42;101809.84;2088839;28;4028;-72
2021/06/03 01:39:05;;;;;;;;;;;;;;;22.20;49.43;101807.00;2088970;28;4005;-72
2021/06/03 01:40:06;;;;;;;;;;;;;;;22.21;49.43;101808.66;2087847;28;3839;-72
2021/06/03 01:41:07;;;;;;;;;;;;;;;22.21;49.45;101808.66;2087599;28;5163;-73
2021/06/03 01:42:08;;;;;;;;;;;;;;;22.22;49.47;101812.38;2089383;28;3847;-73
2021/06/03 01:43:10;;;;;;;;;;;;;;;22.22;49.51;101815.22;2087924;28;3867;-73
2021/06/03 01:44:11;;;;;;;;;;;;;;;22.22;49.32;101820.94;2089450;28;4061;-72
2021/06/03 01:45:12;;;;;;;;;;;;;;;22.21;49.34;101820.06;2088586;28;4169;-71
2021/06/03 01:46:13;;;;;;;;;;;;;;;22.22;49.55;101816.06;2087755;28;4045;-73
2021/06/03 01:47:15;;;;;;;;;;;;;;;22.22;49.48;101816.06;2088559;28;4104;-72
2021/06/03 01:48:16;;;;;;;;;;;;;;;22.23;49.58;101819.72;2086535;28;3867;-73
2021/06/03 01:49:17;;;;;;;;;;;;;;;22.23;49.58;101817.72;2087093;28;4032;-74
2021/06/03 01:50:18;;;;;;;;;;;;;;;22.22;49.42;101818.91;2088205;28;3908;-75
2021/06/03 01:51:20;;;;;;;;;;;;;;;22.23;49.45;101817.72;2088111;28;5076;-75
2021/06/03 01:52:21;;;;;;;;;;;;;;;22.24;49.57;101816.53;2087693;28;3934;-75
2021/06/03 01:53:22;;;;;;;;;;;;;;;22.24;49.40;101815.69;2088717;28;3985;-73
2021/06/03 01:54:23;;;;;;;;;;;;;;;22.23;49.56;101814.88;2088028;28;4029;-73
2021/06/03 01:55:24;;;;;;;;;;;;;;;22.24;49.54;101818.56;2088415;28;4015;-73
2021/06/03 01:56:26;;;;;;;;;;;;;;;22.24;49.50;101818.56;2085558;28;3981;-72
2021/06/03 01:57:27;;;;;;;;;;;;;;;22.24;49.65;101816.53;2088022;28;3949;-73
2021/06/03 01:58:28;;;;;;;;;;;;;;;22.24;49.51;101816.53;2088576;28;6293;-72
2021/06/03 01:59:29;;;;;;;;;;;;;;;22.25;49.47;101814.53;2082230;28;5334;-73
2021/06/03 02:00:30;;;;;;;;;;;;;;;22.24;49.44;101810.84;2087803;28;3886;-73
2021/06/03 02:01:32;;;;;;;;;;;;;;;22.24;49.49;101815.69;2087775;28;4026;-77
2021/06/03 02:02:33;;;;;;;;;;;;;;;22.26;49.87;101816.22;2088664;28;3955;-78
2021/06/03 02:03:34;;;;;;;;;;;;;;;22.27;49.71;101820.72;2088626;28;3864;-77
2021/06/03 02:04:35;;;;;;;;;;;;;;;22.27;49.68;101819.88;2088069;28;4070;-78
2021/06/03 02:05:37;;;;;;;;;;;;;;;22.26;49.67;101819.06;2087344;28;4000;-77
2021/06/03 02:06:38;;;;;;;;;;;;;;;22.27;49.65;101817.03;2087992;28;4124;-76
2021/06/03 02:07:39;;;;;;;;;;;;;;;22.26;49.64;101816.22;2086934;28;3980;-75
2021/06/03 02:08:40;;;;;;;;;;;;;;;22.26;49.45;101816.22;2088909;28;4018;-78
2021/06/03 02:09:41;;;;;;;;;;;;;;;22.27;49.64;101817.03;2088661;28;5331;-77
2021/06/03 02:10:43;;;;;;;;;;;;;;;22.26;49.45;101812.53;2087494;28;4027;-74
2021/06/03 02:11:44;;;;;;;;;;;;;;;22.28;49.58;101818.72;2088151;28;5254;-74
2021/06/03 02:12:45;;;;;;;;;;;;;;;22.28;49.46;101815.88;2088554;28;6030;-75
2021/06/03 02:13:46;;;;;;;;;;;;;;;22.26;49.61;101824.75;2087747;28;3775;-79
2021/06/03 02:14:48;;;;;;;;;;;;;;;22.26;49.48;101821.06;2088439;28;4246;-80
2021/06/03 02:15:49;;;;;;;;;;;;;;;22.22;49.22;101821.75;2088255;28;4017;-80
2021/06/03 02:16:50;;;;;;;;;;;;;;;22.20;49.13;101817.56;2086216;28;4042;-78
2021/06/03 02:17:52;;;;;;;;;;;;;;;22.20;48.88;101823.25;2085351;28;3745;-78
2021/06/03 02:18:54;;;;;;;;;;;;;;;22.17;48.85;101821.06;2086906;28;3935;-78
2021/06/03 02:19:55;;;;;;;;;;;;;;;22.16;48.66;101822.22;2088139;28;4134;-80
2021/06/03 02:20:57;;;;;;;;;;;;;;;22.15;48.73;101818.53;2088057;28;4377;-80
2021/06/03 02:21:58;;;;;;;;;;;;;;;22.15;48.34;101820.56;2087944;28;4212;-80
2021/06/03 02:22:59;;;;;;;;;;;;;;;22.15;48.41;101824.22;2088520;28;3918;-81
2021/06/03 02:24:00;;;;;;;;;;;;;;;22.13;48.33;101818.03;2089141;28;4036;-81
2021/06/03 02:25:02;;;;;;;;;;;;;;;22.13;48.32;101820.88;2096711;28;3895;-75
2021/06/03 02:26:03;;;;;;;;;;;;;;;22.15;48.55;101823.41;2097213;28;4375;-75
2021/06/03 02:27:04;;;;;;;;;;;;;;;22.15;48.74;101821.38;2094948;28;4025;-73
2021/06/03 02:28:05;;;;;;;;;;;;;;;22.17;48.85;101823.91;2096712;28;3993;-75
2021/06/03 02:29:06;;;;;;;;;;;;;;;22.17;48.71;101824.75;2095951;28;4068;-75
2021/06/03 02:30:08;;;;;;;;;;;;;;;22.18;48.61;101822.75;2096614;28;3903;-75
2021/06/03 02:31:09;;;;;;;;;;;;;;;22.19;48.73;101819.59;2095735;28;5018;-75
2021/06/03 02:32:10;;;;;;;;;;;;;;;22.19;48.68;101815.88;2096066;28;4066;-74
2021/06/03 02:33:11;;;;;;;;;;;;;;;22.20;48.69;101820.41;2095679;28;4096;-75
2021/06/03 02:34:13;;;;;;;;;;;;;;;22.20;48.63;101818.41;2095556;28;3783;-75
2021/06/03 02:35:14;;;;;;;;;;;;;;;22.21;48.48;101813.53;2097123;28;4080;-72
2021/06/03 02:36:15;;;;;;;;;;;;;;;22.21;48.58;101825.75;2096848;28;3910;-74
2021/06/03 02:37:16;;;;;;;;;;;;;;;22.21;48.56;101820.06;2096396;28;4011;-74
2021/06/03 02:38:17;;;;;;;;;;;;;;;22.21;48.28;101820.06;2097368;28;4000;-75
2021/06/03 02:39:19;;;;;;;;;;;;;;;22.22;48.52;101815.22;2095911;28;3852;-75
2021/06/03 02:40:20;;;;;;;;;;;;;;;22.22;48.53;101823.78;2096826;28;4157;-75
2021/06/03 02:41:21;;;;;;;;;;;;;;;22.21;48.47;101819.22;2096188;28;4377;-75
2021/06/03 02:42:22;;;;;;;;;;;;;;;22.22;48.49;101818.91;2096808;28;3749;-73
2021/06/03 02:43:23;;;;;;;;;;;;;;;22.22;48.44;101816.06;2096433;28;3998;-74
2021/06/03 02:44:25;;;;;;;;;;;;;;;22.22;48.46;101833.16;2095949;28;3808;-74
2021/06/03 02:45:26;;;;;;;;;;;;;;;22.20;48.35;101818.41;2095534;28;3839;-75
2021/06/03 02:46:27;;;;;;;;;;;;;;;22.22;48.33;101818.91;2096228;28;4068;-75
2021/06/03 02:47:29;;;;;;;;;;;;;;;22.23;48.45;101831.97;2096225;28;4040;-74
2021/06/03 02:48:31;;;;;;;;;;;;;;;22.23;48.31;101826.28;2095637;28;4025;-74
2021/06/03 02:49:32;;;;;;;;;;;;;;;22.23;48.33;101826.28;2096963;28;3854;-74
2021/06/03 02:50:33;;;;;;;;;;;;;;;22.23;48.46;101829.13;2096005;28;4039;-74
2021/06/03 02:51:34;;;;;;;;;;;;;;;22.24;48.33;101829.94;2095554;28;4183;-73
2021/06/03 02:52:36;;;;;;;;;;;;;;;22.23;48.44;101823.41;2094875;28;4192;-73
2021/06/03 02:53:37;;;;;;;;;;;;;;;22.24;48.41;101833.63;2097319;28;3957;-75
2021/06/03 02:54:38;;;;;;;;;;;;;;;22.24;48.28;101827.94;2096317;28;4109;-75
2021/06/03 02:55:39;;;;;;;;;;;;;;;22.24;48.47;101829.94;2095962;28;4089;-75
2021/06/03 02:56:40;;;;;;;;;;;;;;;22.24;48.45;101833.63;2095647;28;3951;-74
2021/06/03 02:57:42;;;;;;;;;;;;;;;22.25;48.49;101837.34;2095634;28;3956;-74
2021/06/03 02:58:43;;;;;;;;;;;;;;;22.25;48.35;101834.50;2095778;28;3968;-73
2021/06/03 02:59:44;;;;;;;;;;;;;;;22.25;48.37;101831.66;2096213;28;3923;-76
2021/06/03 03:00:45;;;;;;;;;;;;;;;22.26;48.29;101838.19;2094579;28;3943;-76
2021/06/03 03:01:47;;;;;;;;;;;;;;;22.24;48.56;101830.78;2096748;28;3879;-72
2021/06/03 03:02:48;;;;;;;;;;;;;;;22.26;48.55;101838.19;2095659;28;4033;-72
2021/06/03 03:03:49;;;;;;;;;;;;;;;22.26;48.60;101836.16;2096028;28;4010;-74
2021/06/03 03:04:50;;;;;;;;;;;;;;;22.26;48.40;101836.16;2097355;28;4275;-72
2021/06/03 03:05:51;;;;;;;;;;;;;;;22.27;48.43;101839.84;2096583;28;3886;-70
2021/06/03 03:06:53;;;;;;;;;;;;;;;22.27;48.53;101834.97;2094562;28;4031;-76
2021/06/03 03:07:54;;;;;;;;;;;;;;;22.27;48.49;101839.84;2096629;28;4068;-77
2021/06/03 03:08:56;;;;;;;;;;;;;;;22.27;48.50;101825.59;2096571;28;3872;-77
2021/06/03 03:09:57;;;;;;;;;;;;;;;22.27;48.61;101829.28;2096002;28;4218;-77
2021/06/03 03:10:58;;;;;;;;;;;;;;;22.27;48.47;101828.44;2096389;28;3871;-76
2021/06/03 03:11:59;;;;;;;;;;;;;;;22.27;48.70;101832.13;2096236;28;4030;-76
2021/06/03 03:13:01;;;;;;;;;;;;;;;22.27;48.52;101828.44;2096138;28;3990;-77
2021/06/03 03:14:02;;;;;;;;;;;;;;;22.26;48.64;101821.91;2096502;28;4020;-74
2021/06/03 03:15:03;;;;;;;;;;;;;;;22.27;48.67;101828.44;2097129;28;3868;-75
2021/06/03 03:16:04;;;;;;;;;;;;;;;22.27;48.60;101819.88;2095537;28;3999;-73
2021/06/03 03:17:06;;;;;;;;;;;;;;;22.29;48.50;101823.25;2094236;28;3885;-73
2021/06/03 03:18:07;;;;;;;;;;;;;;;22.28;48.57;101825.25;2097515;28;3919;-73
2021/06/03 03:19:08;;;;;;;;;;;;;;;22.28;48.54;101821.59;2097625;28;3861;-73
2021/06/03 03:20:10;;;;;;;;;;;;;;;22.29;48.76;101823.25;2097407;28;3887;-72
2021/06/03 03:21:24;;;;;;;;;;;;;;;22.28;48.73;101818.72;2097318;28;3871;-72
2021/06/03 03:22:25;;;;;;;;;;;;;;;22.29;48.73;101823.25;2097994;28;5088;-73
2021/06/03 03:23:26;;;;;;;;;;;;;;;22.28;48.55;101824.44;2097894;28;3854;-72
2021/06/03 03:24:28;;;;;;;;;;;;;;;22.28;48.68;101828.13;2097882;28;4006;-73
2021/06/03 03:25:29;;;;;;;;;;;;;;;22.29;48.65;101828.94;2097723;28;3998;-74
2021/06/03 03:26:34;;;;;;;;;;;;;;;22.28;48.72;101833.81;2097804;28;3978;-72
2021/06/03 03:27:35;;;;;;;;;;;;;;;22.28;48.69;101825.25;2097021;28;3851;-74
2021/06/03 03:28:36;;;;;;;;;;;;;;;22.31;48.64;101823.75;2097566;28;4126;-73
2021/06/03 03:29:38;;;;;;;;;;;;;;;22.28;48.68;101821.59;2098490;28;5096;-73
2021/06/03 03:30:43;;;;;;;;;;;;;;;22.29;48.59;101826.09;2097240;28;3999;-72
2021/06/03 03:31:44;;;;;;;;;;;;;;;22.31;48.67;101826.59;2097584;28;3984;-73
2021/06/03 03:32:46;;;;;;;;;;;;;;;22.30;48.63;101831.44;2097014;28;6511;-73
2021/06/03 03:33:47;;;;;;;;;;;;;;;22.31;48.75;101829.47;2097026;28;4003;-72
2021/06/03 03:34:48;;;;;;;;;;;;;;;22.30;48.69;101824.91;2098001;28;4020;-72
2021/06/03 03:35:49;;;;;;;;;;;;;;;22.30;48.82;101831.44;2097067;28;3917;-73
2021/06/03 03:36:51;;;;;;;;;;;;;;;22.30;48.75;101834.28;2098093;28;3909;-73
2021/06/03 03:37:52;;;;;;;;;;;;;;;22.30;48.69;101834.28;2097950;28;3964;-73
2021/06/03 03:38:54;;;;;;;;;;;;;;;22.32;48.63;101831.13;2098568;28;4019;-73
2021/06/03 03:39:55;;;;;;;;;;;;;;;22.30;48.86;101834.28;2098603;28;3881;-73
2021/06/03 03:40:57;;;;;;;;;;;;;;;22.31;48.69;101838.00;2098130;28;3748;-73
2021/06/03 03:41:58;;;;;;;;;;;;;;;22.30;48.71;101834.28;2098004;28;3777;-72
2021/06/03 03:42:59;;;;;;;;;;;;;;;22.31;48.83;101835.16;2087526;28;3942;-73
2021/06/03 03:44:00;;;;;;;;;;;;;;;22.31;48.85;101832.31;2081671;28;3961;-73
2021/06/03 03:45:02;;;;;;;;;;;;;;;22.32;48.71;101836.81;2087055;28;3938;-73
2021/06/03 03:46:03;;;;;;;;;;;;;;;22.31;48.70;101835.16;2097325;28;3930;-74
2021/06/03 03:47:04;;;;;;;;;;;;;;;22.31;48.85;101835.16;2097697;28;3935;-75
2021/06/03 03:48:06;;;;;;;;;;;;;;;22.31;48.89;101840.88;2097165;28;4061;-73
2021/06/03 03:49:07;;;;;;;;;;;;;;;22.32;48.73;101836.81;2098291;28;4008;-73
2021/06/03 03:50:08;;;;;;;;;;;;;;;22.32;48.68;101837.66;2097997;28;4009;-71
2021/06/03 03:51:13;;;;;;;;;;;;;;;22.32;48.71;101839.69;2097994;28;4093;-70
2021/06/03 03:52:14;;;;;;;;;;;;;;;22.33;48.83;101841.34;2098055;28;4032;-71
2021/06/03 03:53:15;;;;;;;;;;;;;;;22.32;48.87;101829.09;2097793;28;4037;-73
2021/06/03 03:54:17;;;;;;;;;;;;;;;22.33;48.70;101830.78;2097632;28;4005;-72
2021/06/03 03:55:19;;;;;;;;;;;;;;;22.32;48.87;101840.50;2097175;28;3867;-72
2021/06/03 03:56:20;;;;;;;;;;;;;;;22.33;48.88;101838.50;2096157;28;4007;-71
2021/06/03 03:57:23;;;;;;;;;;;;;;;22.33;48.79;101832.78;2098107;28;4080;-72
2021/06/03 03:58:25;;;;;;;;;;;;;;;22.33;48.90;101842.19;2096941;28;4041;-71
2021/06/03 03:59:26;;;;;;;;;;;;;;;22.33;48.93;101838.50;2097814;28;3859;-72
2021/06/03 04:00:27;;;;;;;;;;;;;;;22.33;48.89;101832.78;2097591;28;3986;-71
2021/06/03 04:01:30;;;;;;;;;;;;;;;22.31;48.90;101841.69;2098167;28;4012;-71
2021/06/03 04:02:31;;;;;;;;;;;;;;;22.33;48.78;101844.19;2099003;28;3927;-72
2021/06/03 04:03:32;;;;;;;;;;;;;;;22.33;48.94;101838.50;2097482;28;3964;-72
2021/06/03 04:04:33;;;;;;;;;;;;;;;22.33;48.89;101845.06;2097832;28;4000;-70
2021/06/03 04:05:35;;;;;;;;;;;;;;;22.34;48.85;101843.03;2098367;28;4287;-70
2021/06/03 04:06:36;;;;;;;;;;;;;;;22.34;48.80;101843.03;2098290;28;4000;-72
2021/06/03 04:07:38;;;;;;;;;;;;;;;22.34;48.80;101845.88;2097844;28;4067;-71
2021/06/03 04:08:39;;;;;;;;;;;;;;;22.33;48.83;101842.19;2097653;28;3812;-73
2021/06/03 04:09:40;;;;;;;;;;;;;;;22.33;48.80;101845.06;2098335;28;3959;-72
2021/06/03 04:10:41;;;;;;;;;;;;;;;22.34;48.93;101843.03;2096424;28;4265;-72
2021/06/03 04:11:43;;;;;;;;;;;;;;;22.34;48.87;101843.03;2096638;28;4027;-71
2021/06/03 04:12:44;;;;;;;;;;;;;;;22.34;48.83;101848.75;2098503;28;3793;-72
2021/06/03 04:13:45;;;;;;;;;;;;;;;22.33;48.77;101844.19;2097485;28;3948;-72
2021/06/03 04:14:47;;;;;;;;;;;;;;;22.34;48.78;101845.88;2098001;28;4032;-72
2021/06/03 04:15:48;;;;;;;;;;;;;;;22.33;48.81;101845.06;2097305;28;4248;-71
2021/06/03 04:16:49;;;;;;;;;;;;;;;22.34;48.95;101848.75;2097504;28;4055;-71
2021/06/03 04:17:50;;;;;;;;;;;;;;;22.33;48.69;101839.34;2097871;28;4029;-73
2021/06/03 04:18:52;;;;;;;;;;;;;;;22.34;48.71;101843.03;2096948;28;4123;-72
2021/06/03 04:19:54;;;;;;;;;;;;;;;22.33;48.87;101842.19;2096640;28;4026;-72
2021/06/03 04:20:55;;;;;;;;;;;;;;;22.33;48.84;101845.06;2097784;28;4016;-69
2021/06/03 04:21:58;;;;;;;;;;;;;;;22.34;48.83;101840.19;2097946;28;3855;-71
2021/06/03 04:22:59;;;;;;;;;;;;;;;22.34;48.76;101848.75;2096883;28;3864;-73
2021/06/03 04:24:00;;;;;;;;;;;;;;;22.34;48.60;101849.56;2097082;28;4007;-73
2021/06/03 04:25:02;;;;;;;;;;;;;;;22.34;48.83;101849.56;2096971;28;3983;-73
2021/06/03 04:26:03;;;;;;;;;;;;;;;22.35;48.88;101858.97;2095545;28;4130;-74
2021/06/03 04:27:04;;;;;;;;;;;;;;;22.34;48.80;101846.72;2087740;28;4022;-73
2021/06/03 04:28:05;;;;;;;;;;;;;;;22.34;48.80;101849.56;2088358;28;4074;-73
2021/06/03 04:29:07;;;;;;;;;;;;;;;22.36;48.95;101854.94;2097638;28;4156;-73
2021/06/03 04:30:08;;;;;;;;;;;;;;;22.35;48.73;101853.25;2097714;28;4033;-74
2021/06/03 04:31:09;;;;;;;;;;;;;;;22.35;48.66;101851.22;2097061;28;4008;-73
2021/06/03 04:32:10;;;;;;;;;;;;;;;22.36;48.85;101854.94;2098055;28;4029;-70
2021/06/03 04:33:12;;;;;;;;;;;;;;;22.35;48.68;101853.25;2096068;28;4970;-71
2021/06/03 04:34:13;;;;;;;;;;;;;;;22.36;48.78;101846.41;2096496;28;3993;-71
2021/06/03 04:35:14;;;;;;;;;;;;;;;22.36;48.78;101850.06;2098217;28;3994;-73
2021/06/03 04:36:16;;;;;;;;;;;;;;;22.36;48.79;101849.25;2097443;28;3872;-69
2021/06/03 04:37:17;;;;;;;;;;;;;;;22.36;48.61;101861.47;2097244;28;4039;-70
2021/06/03 04:38:18;;;;;;;;;;;;;;;22.35;48.63;101842.69;2097442;28;3849;-73
2021/06/03 04:39:19;;;;;;;;;;;;;;;22.36;48.65;101852.94;2097967;28;3813;-75
2021/06/03 04:40:20;;;;;;;;;;;;;;;22.36;48.77;101854.94;2096087;28;3949;-75
2021/06/03 04:41:22;;;;;;;;;;;;;;;22.36;48.71;101864.34;2096205;28;3808;-75
2021/06/03 04:42:23;;;;;;;;;;;;;;;22.35;48.69;101854.09;2097605;28;3836;-75
2021/06/03 04:43:24;;;;;;;;;;;;;;;22.36;48.70;101852.09;2096665;28;3843;-75
2021/06/03 04:44:25;;;;;;;;;;;;;;;22.35;48.74;101851.22;2096719;28;3944;-76
2021/06/03 04:45:27;;;;;;;;;;;;;;;22.35;48.71;101847.56;2093702;28;3792;-73
2021/06/03 04:46:28;;;;;;;;;;;;;;;22.36;48.62;101854.94;2096323;28;4018;-73
2021/06/03 04:47:29;;;;;;;;;;;;;;;22.37;48.59;101856.63;2097672;28;3807;-73
2021/06/03 04:48:31;;;;;;;;;;;;;;;22.36;48.67;101864.34;2097859;28;3794;-72
2021/06/03 04:49:32;;;;;;;;;;;;;;;22.37;48.79;101856.63;2097132;28;4000;-73
2021/06/03 04:50:33;;;;;;;;;;;;;;;22.37;48.57;101859.47;2097817;28;3880;-74
2021/06/03 04:51:34;;;;;;;;;;;;;;;22.37;48.57;101868.03;2097617;28;3832;-71
2021/06/03 04:52:36;;;;;;;;;;;;;;;22.37;48.64;101868.03;2097576;28;4180;-73
2021/06/03 04:53:37;;;;;;;;;;;;;;;22.36;48.75;101858.63;2097966;28;3964;-71
2021/06/03 04:54:38;;;;;;;;;;;;;;;22.36;48.67;101866.34;2097195;28;3962;-71
2021/06/03 04:55:39;;;;;;;;;;;;;;;22.37;48.83;101868.03;2096425;28;3979;-71
2021/06/03 04:56:40;;;;;;;;;;;;;;;22.37;48.72;101870.88;2097604;28;3941;-72
2021/06/03 04:57:42;;;;;;;;;;;;;;;22.37;48.64;101856.63;2096605;28;3796;-72
2021/06/03 04:58:43;;;;;;;;;;;;;;;22.36;48.80;101866.34;2096411;28;3985;-72
2021/06/03 04:59:44;;;;;;;;;;;;;;;22.36;48.68;101863.50;2097104;28;3925;-72
2021/06/03 05:00:45;;;;;;;;;;;;;;;22.36;48.67;101864.34;2096934;28;4010;-72
2021/06/03 05:01:47;;;;;;;;;;;;;;;22.37;48.53;101865.16;2096821;28;4258;-73
2021/06/03 05:02:48;;;;;;;;;;;;;;;22.37;48.61;101862.31;2097559;28;3999;-73
2021/06/03 05:03:49;;;;;;;;;;;;;;;22.36;48.59;101855.78;2096797;28;3872;-73
2021/06/03 05:04:50;;;;;;;;;;;;;;;22.36;48.67;101864.34;2096879;28;4090;-72
2021/06/03 05:05:54;;;;;;;;;;;;;;;22.37;48.71;101865.16;2097163;28;4191;-73
2021/06/03 05:06:55;;;;;;;;;;;;;;;22.37;48.61;101866.00;2096849;28;3842;-71
2021/06/03 05:07:56;;;;;;;;;;;;;;;22.38;48.76;101872.53;2097390;28;4101;-72
2021/06/03 05:08:58;;;;;;;;;;;;;;;22.38;48.64;101869.69;2097450;28;3876;-72
2021/06/03 05:09:59;;;;;;;;;;;;;;;22.37;48.64;101870.88;2097164;28;4039;-71
2021/06/03 05:11:01;;;;;;;;;;;;;;;22.37;48.62;101868.84;2096475;28;3908;-70
2021/06/03 05:12:02;;;;;;;;;;;;;;;22.38;48.64;101875.38;2097626;28;4024;-70
2021/06/03 05:13:04;;;;;;;;;;;;;;;22.37;48.70;101868.03;2096779;28;4089;-70
2021/06/03 05:14:05;;;;;;;;;;;;;;;22.37;48.60;101870.88;2096965;28;3853;-71
2021/06/03 05:15:06;;;;;;;;;;;;;;;22.37;48.71;101866.00;2096131;28;4013;-70
2021/06/03 05:16:07;;;;;;;;;;;;;;;22.37;48.75;101865.16;2097592;28;3994;-70
2021/06/03 05:17:09;;;;;;;;;;;;;;;22.36;48.45;101872.88;2096567;28;3915;-70
2021/06/03 05:18:10;;;;;;;;;;;;;;;22.37;48.60;101876.56;2096939;28;5258;-71
2021/06/03 05:19:11;;;;;;;;;;;;;;;22.37;48.59;101868.03;2097373;28;3949;-70
2021/06/03 05:20:12;;;;;;;;;;;;;;;22.37;48.51;101874.56;2097582;28;4085;-70